sensor_id;sensor_type;location;lat;lon;timestamp;P1;durP1;ratioP1;P2;durP2;ratioP2
16689;SDS011;8458;52.220;9.884;2023-07-20T00:02:22;1.87;;;0.70;;
16689;SDS011;8458;52.220;9.884;2023-07-20T00:04:48;0.53;;;0.53;;
16689;SDS011;8458;52.220;9.884;2023-07-20T00:07:15;0.50;;;0.50;;
16689;SDS011;8458;52.220;9.884;2023-07-20T00:09:41;0.93;;;0.60;;
16689;SDS011;8458;52.220;9.884;2023-07-20T00:12:09;1.00;;;0.50;;
16689;SDS011;8458;52.220;9.884;2023-07-20T00:14:36;0.47;;;0.47;;
16689;SDS011;8458;52.220;9.884;2023-07-20T00:17:03;0.97;;;0.50;;
16689;SDS011;8458;52.220;9.884;2023-07-20T00:19:29;0.83;;;0.60;;
16689;SDS011;8458;52.220;9.884;2023-07-20T00:21:57;0.60;;;0.60;;
16689;SDS011;8458;52.220;9.884;2023-07-20T00:24:24;1.33;;;0.70;;
16689;SDS011;8458;52.220;9.884;2023-07-20T00:26:50;0.53;;;0.53;;
16689;SDS011;8458;52.220;9.884;2023-07-20T00:29:18;0.60;;;0.60;;
16689;SDS011;8458;52.220;9.884;2023-07-20T00:31:45;1.97;;;0.50;;
16689;SDS011;8458;52.220;9.884;2023-07-20T00:34:11;0.70;;;0.60;;
16689;SDS011;8458;52.220;9.884;2023-07-20T00:36:37;0.50;;;0.50;;
16689;SDS011;8458;52.220;9.884;2023-07-20T00:39:04;3.50;;;0.60;;
16689;SDS011;8458;52.220;9.884;2023-07-20T00:41:30;0.90;;;0.50;;
16689;SDS011;8458;52.220;9.884;2023-07-20T00:43:58;0.50;;;0.50;;
16689;SDS011;8458;52.220;9.884;2023-07-20T00:46:25;4.30;;;0.50;;
16689;SDS011;8458;52.220;9.884;2023-07-20T00:48:52;1.27;;;0.50;;
16689;SDS011;8458;52.220;9.884;2023-07-20T00:51:19;1.10;;;0.50;;
16689;SDS011;8458;52.220;9.884;2023-07-20T00:53:47;0.60;;;0.60;;
16689;SDS011;8458;52.220;9.884;2023-07-20T00:56:13;1.83;;;0.57;;
16689;SDS011;8458;52.220;9.884;2023-07-20T00:58:40;0.87;;;0.60;;
16689;SDS011;8458;52.220;9.884;2023-07-20T01:01:07;0.97;;;0.50;;
16689;SDS011;8458;52.220;9.884;2023-07-20T01:03:35;1.93;;;0.60;;
16689;SDS011;8458;52.220;9.884;2023-07-20T01:06:03;0.70;;;0.60;;
16689;SDS011;8458;52.220;9.884;2023-07-20T01:08:39;1.77;;;0.60;;
16689;SDS011;8458;52.220;9.884;2023-07-20T01:11:10;0.97;;;0.60;;
16689;SDS011;8458;52.220;9.884;2023-07-20T01:13:41;0.50;;;0.50;;
16689;SDS011;8458;52.220;9.884;2023-07-20T01:16:09;0.50;;;0.50;;
16689;SDS011;8458;52.220;9.884;2023-07-20T01:18:37;0.63;;;0.50;;
16689;SDS011;8458;52.220;9.884;2023-07-20T01:21:05;0.80;;;0.50;;
16689;SDS011;8458;52.220;9.884;2023-07-20T01:23:46;0.67;;;0.50;;
16689;SDS011;8458;52.220;9.884;2023-07-20T01:26:38;0.70;;;0.70;;
16689;SDS011;8458;52.220;9.884;2023-07-20T01:29:22;1.53;;;0.40;;
16689;SDS011;8458;52.220;9.884;2023-07-20T01:32:03;0.57;;;0.57;;
16689;SDS011;8458;52.220;9.884;2023-07-20T01:34:32;1.47;;;0.50;;
16689;SDS011;8458;52.220;9.884;2023-07-20T01:37:01;1.23;;;0.50;;
16689;SDS011;8458;52.220;9.884;2023-07-20T01:39:29;0.77;;;0.43;;
16689;SDS011;8458;52.220;9.884;2023-07-20T01:41:57;0.43;;;0.40;;
16689;SDS011;8458;52.220;9.884;2023-07-20T01:44:25;0.83;;;0.40;;
16689;SDS011;8458;52.220;9.884;2023-07-20T01:46:51;0.77;;;0.60;;
16689;SDS011;8458;52.220;9.884;2023-07-20T01:49:19;1.03;;;0.50;;
16689;SDS011;8458;52.220;9.884;2023-07-20T01:51:45;1.57;;;0.50;;
16689;SDS011;8458;52.220;9.884;2023-07-20T01:54:12;0.70;;;0.50;;
16689;SDS011;8458;52.220;9.884;2023-07-20T01:56:38;0.50;;;0.43;;
16689;SDS011;8458;52.220;9.884;2023-07-20T01:59:05;1.30;;;0.60;;
16689;SDS011;8458;52.220;9.884;2023-07-20T02:01:31;0.83;;;0.50;;
16689;SDS011;8458;52.220;9.884;2023-07-20T02:03:58;0.77;;;0.50;;
16689;SDS011;8458;52.220;9.884;2023-07-20T02:06:26;1.67;;;0.60;;
16689;SDS011;8458;52.220;9.884;2023-07-20T02:08:52;1.63;;;0.60;;
16689;SDS011;8458;52.220;9.884;2023-07-20T02:11:19;0.77;;;0.60;;
16689;SDS011;8458;52.220;9.884;2023-07-20T02:13:45;1.00;;;0.60;;
16689;SDS011;8458;52.220;9.884;2023-07-20T02:16:12;1.73;;;0.57;;
16689;SDS011;8458;52.220;9.884;2023-07-20T02:18:38;1.90;;;0.60;;
16689;SDS011;8458;52.220;9.884;2023-07-20T02:21:05;1.23;;;0.60;;
16689;SDS011;8458;52.220;9.884;2023-07-20T02:23:32;2.30;;;0.67;;
16689;SDS011;8458;52.220;9.884;2023-07-20T02:25:59;1.50;;;0.50;;
16689;SDS011;8458;52.220;9.884;2023-07-20T02:28:25;2.00;;;0.70;;
16689;SDS011;8458;52.220;9.884;2023-07-20T02:30:52;1.53;;;0.47;;
16689;SDS011;8458;52.220;9.884;2023-07-20T02:33:18;3.40;;;0.80;;
16689;SDS011;8458;52.220;9.884;2023-07-20T02:35:45;1.33;;;0.60;;
16689;SDS011;8458;52.220;9.884;2023-07-20T02:38:12;1.80;;;0.60;;
16689;SDS011;8458;52.220;9.884;2023-07-20T02:40:40;1.07;;;0.53;;
16689;SDS011;8458;52.220;9.884;2023-07-20T02:43:06;1.37;;;0.50;;
16689;SDS011;8458;52.220;9.884;2023-07-20T02:45:34;0.63;;;0.40;;
16689;SDS011;8458;52.220;9.884;2023-07-20T02:48:01;0.90;;;0.43;;
16689;SDS011;8458;52.220;9.884;2023-07-20T02:50:28;1.33;;;0.40;;
16689;SDS011;8458;52.220;9.884;2023-07-20T02:52:54;1.40;;;0.40;;
16689;SDS011;8458;52.220;9.884;2023-07-20T02:55:20;1.50;;;0.50;;
16689;SDS011;8458;52.220;9.884;2023-07-20T02:57:48;0.70;;;0.50;;
16689;SDS011;8458;52.220;9.884;2023-07-20T03:00:15;1.33;;;0.40;;
16689;SDS011;8458;52.220;9.884;2023-07-20T03:02:44;0.83;;;0.37;;
16689;SDS011;8458;52.220;9.884;2023-07-20T03:05:12;1.00;;;0.40;;
16689;SDS011;8458;52.220;9.884;2023-07-20T03:07:39;0.40;;;0.40;;
16689;SDS011;8458;52.220;9.884;2023-07-20T03:10:07;0.37;;;0.37;;
16689;SDS011;8458;52.220;9.884;2023-07-20T03:12:34;1.17;;;0.43;;
16689;SDS011;8458;52.220;9.884;2023-07-20T03:15:02;1.90;;;0.60;;
16689;SDS011;8458;52.220;9.884;2023-07-20T03:17:29;1.73;;;0.70;;
16689;SDS011;8458;52.220;9.884;2023-07-20T03:19:56;1.50;;;0.50;;
16689;SDS011;8458;52.220;9.884;2023-07-20T03:22:22;1.87;;;0.70;;
16689;SDS011;8458;52.220;9.884;2023-07-20T03:24:49;2.60;;;0.70;;
16689;SDS011;8458;52.220;9.884;2023-07-20T03:27:16;1.63;;;0.70;;
16689;SDS011;8458;52.220;9.884;2023-07-20T03:29:42;1.37;;;0.67;;
16689;SDS011;8458;52.220;9.884;2023-07-20T03:32:10;1.50;;;0.50;;
16689;SDS011;8458;52.220;9.884;2023-07-20T03:34:37;1.93;;;0.70;;
16689;SDS011;8458;52.220;9.884;2023-07-20T03:37:03;2.23;;;0.60;;
16689;SDS011;8458;52.220;9.884;2023-07-20T03:39:31;2.33;;;0.77;;
16689;SDS011;8458;52.220;9.884;2023-07-20T03:41:58;2.20;;;0.70;;
16689;SDS011;8458;52.220;9.884;2023-07-20T03:44:24;1.90;;;0.80;;
16689;SDS011;8458;52.220;9.884;2023-07-20T03:46:51;2.53;;;0.80;;
16689;SDS011;8458;52.220;9.884;2023-07-20T03:49:19;2.30;;;0.70;;
16689;SDS011;8458;52.220;9.884;2023-07-20T03:51:45;3.27;;;1.10;;
16689;SDS011;8458;52.220;9.884;2023-07-20T03:54:12;2.07;;;0.70;;
16689;SDS011;8458;52.220;9.884;2023-07-20T03:56:38;2.53;;;0.83;;
16689;SDS011;8458;52.220;9.884;2023-07-20T03:59:05;3.30;;;0.80;;
16689;SDS011;8458;52.220;9.884;2023-07-20T04:01:31;2.37;;;0.70;;
16689;SDS011;8458;52.220;9.884;2023-07-20T04:04:02;2.20;;;0.70;;
16689;SDS011;8458;52.220;9.884;2023-07-20T04:06:32;1.40;;;0.80;;
16689;SDS011;8458;52.220;9.884;2023-07-20T04:08:58;3.23;;;0.70;;
16689;SDS011;8458;52.220;9.884;2023-07-20T04:11:24;3.20;;;0.90;;
16689;SDS011;8458;52.220;9.884;2023-07-20T04:13:51;3.53;;;0.67;;
16689;SDS011;8458;52.220;9.884;2023-07-20T04:16:18;3.30;;;0.70;;
16689;SDS011;8458;52.220;9.884;2023-07-20T04:18:45;1.20;;;0.87;;
16689;SDS011;8458;52.220;9.884;2023-07-20T04:21:12;1.53;;;0.60;;
16689;SDS011;8458;52.220;9.884;2023-07-20T04:23:39;2.60;;;0.90;;
16689;SDS011;8458;52.220;9.884;2023-07-20T04:26:06;2.97;;;0.80;;
16689;SDS011;8458;52.220;9.884;2023-07-20T04:28:33;2.93;;;0.70;;
16689;SDS011;8458;52.220;9.884;2023-07-20T04:31:09;3.43;;;0.83;;
16689;SDS011;8458;52.220;9.884;2023-07-20T04:33:35;1.00;;;0.67;;
16689;SDS011;8458;52.220;9.884;2023-07-20T04:36:02;3.03;;;0.93;;
16689;SDS011;8458;52.220;9.884;2023-07-20T04:38:29;2.90;;;0.90;;
16689;SDS011;8458;52.220;9.884;2023-07-20T04:40:57;2.63;;;0.70;;
16689;SDS011;8458;52.220;9.884;2023-07-20T04:43:24;2.57;;;0.80;;
16689;SDS011;8458;52.220;9.884;2023-07-20T04:45:50;2.07;;;0.77;;
16689;SDS011;8458;52.220;9.884;2023-07-20T04:48:17;2.37;;;0.80;;
16689;SDS011;8458;52.220;9.884;2023-07-20T04:50:45;2.60;;;0.73;;
16689;SDS011;8458;52.220;9.884;2023-07-20T04:53:11;2.40;;;0.90;;
16689;SDS011;8458;52.220;9.884;2023-07-20T04:55:38;1.07;;;0.60;;
16689;SDS011;8458;52.220;9.884;2023-07-20T04:58:06;2.17;;;0.50;;
16689;SDS011;8458;52.220;9.884;2023-07-20T05:00:33;0.60;;;0.50;;
16689;SDS011;8458;52.220;9.884;2023-07-20T05:03:00;1.00;;;0.60;;
16689;SDS011;8458;52.220;9.884;2023-07-20T05:05:27;0.60;;;0.40;;
16689;SDS011;8458;52.220;9.884;2023-07-20T05:07:53;1.27;;;0.50;;
16689;SDS011;8458;52.220;9.884;2023-07-20T05:10:20;0.30;;;0.30;;
16689;SDS011;8458;52.220;9.884;2023-07-20T05:12:46;0.83;;;0.40;;
16689;SDS011;8458;52.220;9.884;2023-07-20T05:15:14;0.40;;;0.40;;
16689;SDS011;8458;52.220;9.884;2023-07-20T05:17:41;0.67;;;0.47;;
16689;SDS011;8458;52.220;9.884;2023-07-20T05:20:08;0.40;;;0.40;;
16689;SDS011;8458;52.220;9.884;2023-07-20T05:22:37;0.63;;;0.60;;
16689;SDS011;8458;52.220;9.884;2023-07-20T05:25:05;0.53;;;0.47;;
16689;SDS011;8458;52.220;9.884;2023-07-20T05:27:33;0.60;;;0.60;;
16689;SDS011;8458;52.220;9.884;2023-07-20T05:29:59;0.40;;;0.40;;
16689;SDS011;8458;52.220;9.884;2023-07-20T05:32:27;0.83;;;0.50;;
16689;SDS011;8458;52.220;9.884;2023-07-20T05:34:54;0.80;;;0.40;;
16689;SDS011;8458;52.220;9.884;2023-07-20T05:37:20;0.73;;;0.40;;
16689;SDS011;8458;52.220;9.884;2023-07-20T05:39:47;0.40;;;0.40;;
16689;SDS011;8458;52.220;9.884;2023-07-20T05:42:13;0.40;;;0.40;;
16689;SDS011;8458;52.220;9.884;2023-07-20T05:44:40;1.20;;;0.50;;
16689;SDS011;8458;52.220;9.884;2023-07-20T05:47:07;0.77;;;0.50;;
16689;SDS011;8458;52.220;9.884;2023-07-20T05:49:35;1.50;;;0.40;;
16689;SDS011;8458;52.220;9.884;2023-07-20T05:52:01;1.27;;;0.50;;
16689;SDS011;8458;52.220;9.884;2023-07-20T05:54:28;0.40;;;0.40;;
16689;SDS011;8458;52.220;9.884;2023-07-20T05:56:54;1.07;;;0.50;;
16689;SDS011;8458;52.220;9.884;2023-07-20T05:59:21;0.50;;;0.50;;
16689;SDS011;8458;52.220;9.884;2023-07-20T06:01:48;1.13;;;0.70;;
16689;SDS011;8458;52.220;9.884;2023-07-20T06:04:15;1.17;;;0.80;;
16689;SDS011;8458;52.220;9.884;2023-07-20T06:06:43;1.50;;;0.80;;
16689;SDS011;8458;52.220;9.884;2023-07-20T06:09:09;1.00;;;1.00;;
16689;SDS011;8458;52.220;9.884;2023-07-20T06:11:37;1.43;;;1.30;;
16689;SDS011;8458;52.220;9.884;2023-07-20T06:14:03;1.37;;;1.13;;
16689;SDS011;8458;52.220;9.884;2023-07-20T06:16:30;1.33;;;1.23;;
16689;SDS011;8458;52.220;9.884;2023-07-20T06:18:56;1.67;;;1.57;;
16689;SDS011;8458;52.220;9.884;2023-07-20T06:21:23;1.53;;;1.43;;
16689;SDS011;8458;52.220;9.884;2023-07-20T06:23:51;2.27;;;1.63;;
16689;SDS011;8458;52.220;9.884;2023-07-20T06:26:17;1.73;;;1.63;;
16689;SDS011;8458;52.220;9.884;2023-07-20T06:28:44;1.80;;;1.70;;
16689;SDS011;8458;52.220;9.884;2023-07-20T06:31:11;1.60;;;1.50;;
16689;SDS011;8458;52.220;9.884;2023-07-20T06:33:37;1.40;;;1.30;;
16689;SDS011;8458;52.220;9.884;2023-07-20T06:36:04;1.60;;;1.50;;
16689;SDS011;8458;52.220;9.884;2023-07-20T06:38:30;1.43;;;1.33;;
16689;SDS011;8458;52.220;9.884;2023-07-20T06:40:58;1.47;;;1.20;;
16689;SDS011;8458;52.220;9.884;2023-07-20T06:43:25;3.10;;;1.30;;
16689;SDS011;8458;52.220;9.884;2023-07-20T06:45:51;1.90;;;1.30;;
16689;SDS011;8458;52.220;9.884;2023-07-20T06:48:19;1.37;;;1.20;;
16689;SDS011;8458;52.220;9.884;2023-07-20T06:50:45;1.10;;;1.03;;
16689;SDS011;8458;52.220;9.884;2023-07-20T06:53:12;1.20;;;1.10;;
16689;SDS011;8458;52.220;9.884;2023-07-20T06:55:38;0.97;;;0.90;;
16689;SDS011;8458;52.220;9.884;2023-07-20T06:58:06;0.90;;;0.90;;
16689;SDS011;8458;52.220;9.884;2023-07-20T07:00:32;1.07;;;1.00;;
16689;SDS011;8458;52.220;9.884;2023-07-20T07:02:59;0.80;;;0.80;;
16689;SDS011;8458;52.220;9.884;2023-07-20T07:05:26;0.80;;;0.80;;
16689;SDS011;8458;52.220;9.884;2023-07-20T07:07:52;1.07;;;0.90;;
16689;SDS011;8458;52.220;9.884;2023-07-20T07:10:18;0.90;;;0.90;;
16689;SDS011;8458;52.220;9.884;2023-07-20T07:12:45;0.80;;;0.80;;
16689;SDS011;8458;52.220;9.884;2023-07-20T07:15:13;0.90;;;0.90;;
16689;SDS011;8458;52.220;9.884;2023-07-20T07:17:39;1.10;;;1.00;;
16689;SDS011;8458;52.220;9.884;2023-07-20T07:20:07;1.53;;;1.13;;
16689;SDS011;8458;52.220;9.884;2023-07-20T07:22:34;4.93;;;1.63;;
16689;SDS011;8458;52.220;9.884;2023-07-20T07:25:01;7.03;;;2.70;;
16689;SDS011;8458;52.220;9.884;2023-07-20T07:27:28;10.43;;;4.70;;
16689;SDS011;8458;52.220;9.884;2023-07-20T07:29:54;18.27;;;3.50;;
16689;SDS011;8458;52.220;9.884;2023-07-20T07:32:22;1.23;;;1.10;;
16689;SDS011;8458;52.220;9.884;2023-07-20T07:34:50;1.00;;;1.00;;
16689;SDS011;8458;52.220;9.884;2023-07-20T07:37:16;6.53;;;3.67;;
16689;SDS011;8458;52.220;9.884;2023-07-20T07:39:44;1.20;;;1.10;;
16689;SDS011;8458;52.220;9.884;2023-07-20T07:42:11;1.30;;;1.20;;
16689;SDS011;8458;52.220;9.884;2023-07-20T07:44:37;1.90;;;1.47;;
16689;SDS011;8458;52.220;9.884;2023-07-20T07:47:04;1.33;;;1.27;;
16689;SDS011;8458;52.220;9.884;2023-07-20T07:49:32;1.97;;;1.30;;
16689;SDS011;8458;52.220;9.884;2023-07-20T07:51:58;1.10;;;1.10;;
16689;SDS011;8458;52.220;9.884;2023-07-20T07:54:27;1.20;;;1.10;;
16689;SDS011;8458;52.220;9.884;2023-07-20T07:56:53;1.10;;;1.00;;
16689;SDS011;8458;52.220;9.884;2023-07-20T07:59:20;1.10;;;1.00;;
16689;SDS011;8458;52.220;9.884;2023-07-20T08:01:46;1.30;;;0.90;;
16689;SDS011;8458;52.220;9.884;2023-07-20T08:04:13;1.17;;;1.00;;
16689;SDS011;8458;52.220;9.884;2023-07-20T08:06:41;1.57;;;0.90;;
16689;SDS011;8458;52.220;9.884;2023-07-20T08:09:07;1.50;;;0.80;;
16689;SDS011;8458;52.220;9.884;2023-07-20T08:11:33;0.80;;;0.80;;
16689;SDS011;8458;52.220;9.884;2023-07-20T08:14:00;1.03;;;0.90;;
16689;SDS011;8458;52.220;9.884;2023-07-20T08:16:27;0.80;;;0.80;;
16689;SDS011;8458;52.220;9.884;2023-07-20T08:18:53;0.60;;;0.60;;
16689;SDS011;8458;52.220;9.884;2023-07-20T08:21:20;1.30;;;0.80;;
16689;SDS011;8458;52.220;9.884;2023-07-20T08:23:48;1.23;;;0.70;;
16689;SDS011;8458;52.220;9.884;2023-07-20T08:26:14;0.67;;;0.67;;
16689;SDS011;8458;52.220;9.884;2023-07-20T08:28:42;0.50;;;0.50;;
16689;SDS011;8458;52.220;9.884;2023-07-20T08:31:08;0.60;;;0.53;;
16689;SDS011;8458;52.220;9.884;2023-07-20T08:33:35;0.50;;;0.50;;
16689;SDS011;8458;52.220;9.884;2023-07-20T08:36:01;1.27;;;0.60;;
16689;SDS011;8458;52.220;9.884;2023-07-20T08:38:28;0.50;;;0.43;;
16689;SDS011;8458;52.220;9.884;2023-07-20T08:40:57;0.77;;;0.60;;
16689;SDS011;8458;52.220;9.884;2023-07-20T08:43:25;1.40;;;0.80;;
16689;SDS011;8458;52.220;9.884;2023-07-20T08:45:57;0.70;;;0.70;;
16689;SDS011;8458;52.220;9.884;2023-07-20T08:48:24;1.10;;;1.00;;
16689;SDS011;8458;52.220;9.884;2023-07-20T08:50:53;0.77;;;0.77;;
16689;SDS011;8458;52.220;9.884;2023-07-20T08:53:21;0.73;;;0.70;;
16689;SDS011;8458;52.220;9.884;2023-07-20T08:55:48;1.40;;;0.70;;
16689;SDS011;8458;52.220;9.884;2023-07-20T08:58:18;0.60;;;0.60;;
16689;SDS011;8458;52.220;9.884;2023-07-20T09:00:45;1.97;;;0.70;;
16689;SDS011;8458;52.220;9.884;2023-07-20T09:03:15;0.60;;;0.60;;
16689;SDS011;8458;52.220;9.884;2023-07-20T09:05:41;0.97;;;0.70;;
16689;SDS011;8458;52.220;9.884;2023-07-20T09:08:08;0.53;;;0.53;;
16689;SDS011;8458;52.220;9.884;2023-07-20T09:10:34;0.50;;;0.50;;
16689;SDS011;8458;52.220;9.884;2023-07-20T09:13:01;0.53;;;0.40;;
16689;SDS011;8458;52.220;9.884;2023-07-20T09:15:29;0.50;;;0.50;;
16689;SDS011;8458;52.220;9.884;2023-07-20T09:17:56;0.40;;;0.40;;
16689;SDS011;8458;52.220;9.884;2023-07-20T09:20:22;0.90;;;0.50;;
16689;SDS011;8458;52.220;9.884;2023-07-20T09:22:50;0.53;;;0.50;;
16689;SDS011;8458;52.220;9.884;2023-07-20T09:25:18;0.77;;;0.40;;
16689;SDS011;8458;52.220;9.884;2023-07-20T09:27:45;0.70;;;0.33;;
16689;SDS011;8458;52.220;9.884;2023-07-20T09:30:13;0.93;;;0.40;;
16689;SDS011;8458;52.220;9.884;2023-07-20T09:32:43;0.63;;;0.40;;
16689;SDS011;8458;52.220;9.884;2023-07-20T09:35:13;0.47;;;0.40;;
16689;SDS011;8458;52.220;9.884;2023-07-20T09:37:46;0.37;;;0.30;;
16689;SDS011;8458;52.220;9.884;2023-07-20T09:40:17;1.37;;;0.47;;
16689;SDS011;8458;52.220;9.884;2023-07-20T09:42:44;0.40;;;0.40;;
16689;SDS011;8458;52.220;9.884;2023-07-20T09:45:11;0.40;;;0.30;;
16689;SDS011;8458;52.220;9.884;2023-07-20T09:47:37;0.50;;;0.40;;
16689;SDS011;8458;52.220;9.884;2023-07-20T09:50:06;0.67;;;0.30;;
16689;SDS011;8458;52.220;9.884;2023-07-20T09:52:37;0.97;;;0.30;;
16689;SDS011;8458;52.220;9.884;2023-07-20T09:55:04;1.50;;;0.40;;
16689;SDS011;8458;52.220;9.884;2023-07-20T09:57:32;0.30;;;0.30;;
16689;SDS011;8458;52.220;9.884;2023-07-20T09:59:59;0.40;;;0.40;;
16689;SDS011;8458;52.220;9.884;2023-07-20T10:02:29;0.40;;;0.30;;
16689;SDS011;8458;52.220;9.884;2023-07-20T10:04:58;0.63;;;0.30;;
16689;SDS011;8458;52.220;9.884;2023-07-20T10:07:30;0.30;;;0.30;;
16689;SDS011;8458;52.220;9.884;2023-07-20T10:09:59;0.30;;;0.27;;
16689;SDS011;8458;52.220;9.884;2023-07-20T10:12:28;0.57;;;0.20;;
16689;SDS011;8458;52.220;9.884;2023-07-20T10:14:58;0.60;;;0.30;;
16689;SDS011;8458;52.220;9.884;2023-07-20T10:17:35;0.50;;;0.37;;
16689;SDS011;8458;52.220;9.884;2023-07-20T10:20:06;0.23;;;0.23;;
16689;SDS011;8458;52.220;9.884;2023-07-20T10:22:36;0.20;;;0.20;;
16689;SDS011;8458;52.220;9.884;2023-07-20T10:25:02;2.53;;;0.20;;
16689;SDS011;8458;52.220;9.884;2023-07-20T10:27:31;0.30;;;0.30;;
16689;SDS011;8458;52.220;9.884;2023-07-20T10:29:57;0.20;;;0.20;;
16689;SDS011;8458;52.220;9.884;2023-07-20T10:32:26;0.20;;;0.20;;
16689;SDS011;8458;52.220;9.884;2023-07-20T10:34:55;0.67;;;0.40;;
16689;SDS011;8458;52.220;9.884;2023-07-20T10:40:29;0.60;;;0.30;;
16689;SDS011;8458;52.220;9.884;2023-07-20T10:42:58;0.50;;;0.30;;
16689;SDS011;8458;52.220;9.884;2023-07-20T10:45:41;0.30;;;0.30;;
16689;SDS011;8458;52.220;9.884;2023-07-20T10:48:18;0.47;;;0.37;;
16689;SDS011;8458;52.220;9.884;2023-07-20T10:50:46;0.93;;;0.20;;
16689;SDS011;8458;52.220;9.884;2023-07-20T10:53:38;0.77;;;0.30;;
16689;SDS011;8458;52.220;9.884;2023-07-20T10:56:08;0.40;;;0.30;;
16689;SDS011;8458;52.220;9.884;2023-07-20T10:58:38;0.47;;;0.30;;
16689;SDS011;8458;52.220;9.884;2023-07-20T11:01:05;0.20;;;0.20;;
16689;SDS011;8458;52.220;9.884;2023-07-20T11:03:33;0.80;;;0.30;;
16689;SDS011;8458;52.220;9.884;2023-07-20T11:09:05;0.20;;;0.20;;
16689;SDS011;8458;52.220;9.884;2023-07-20T11:11:36;0.27;;;0.20;;
16689;SDS011;8458;52.220;9.884;2023-07-20T11:14:04;1.23;;;0.30;;
16689;SDS011;8458;52.220;9.884;2023-07-20T11:16:32;0.20;;;0.20;;
16689;SDS011;8458;52.220;9.884;2023-07-20T11:19:02;0.83;;;0.30;;
16689;SDS011;8458;52.220;9.884;2023-07-20T11:21:29;0.30;;;0.27;;
16689;SDS011;8458;52.220;9.884;2023-07-20T11:24:02;0.30;;;0.30;;
16689;SDS011;8458;52.220;9.884;2023-07-20T11:26:39;0.20;;;0.20;;
16689;SDS011;8458;52.220;9.884;2023-07-20T11:29:06;1.03;;;0.20;;
16689;SDS011;8458;52.220;9.884;2023-07-20T11:31:34;0.37;;;0.20;;
16689;SDS011;8458;52.220;9.884;2023-07-20T11:34:01;0.60;;;0.30;;
16689;SDS011;8458;52.220;9.884;2023-07-20T11:36:28;0.40;;;0.27;;
16689;SDS011;8458;52.220;9.884;2023-07-20T11:38:54;0.40;;;0.20;;
16689;SDS011;8458;52.220;9.884;2023-07-20T11:41:22;0.20;;;0.20;;
16689;SDS011;8458;52.220;9.884;2023-07-20T11:43:48;0.43;;;0.30;;
16689;SDS011;8458;52.220;9.884;2023-07-20T11:46:15;0.30;;;0.27;;
16689;SDS011;8458;52.220;9.884;2023-07-20T11:48:42;0.97;;;0.30;;
16689;SDS011;8458;52.220;9.884;2023-07-20T11:51:12;0.30;;;0.20;;
16689;SDS011;8458;52.220;9.884;2023-07-20T11:53:39;0.30;;;0.20;;
16689;SDS011;8458;52.220;9.884;2023-07-20T11:56:06;0.87;;;0.40;;
16689;SDS011;8458;52.220;9.884;2023-07-20T11:58:34;1.07;;;0.20;;
16689;SDS011;8458;52.220;9.884;2023-07-20T12:01:01;0.53;;;0.30;;
16689;SDS011;8458;52.220;9.884;2023-07-20T12:03:28;0.30;;;0.20;;
16689;SDS011;8458;52.220;9.884;2023-07-20T12:05:55;0.87;;;0.30;;
16689;SDS011;8458;52.220;9.884;2023-07-20T12:08:22;0.30;;;0.23;;
16689;SDS011;8458;52.220;9.884;2023-07-20T12:10:49;0.20;;;0.20;;
16689;SDS011;8458;52.220;9.884;2023-07-20T12:13:15;0.20;;;0.20;;
16689;SDS011;8458;52.220;9.884;2023-07-20T12:15:43;0.27;;;0.27;;
16689;SDS011;8458;52.220;9.884;2023-07-20T12:18:10;0.30;;;0.30;;
16689;SDS011;8458;52.220;9.884;2023-07-20T12:20:36;1.77;;;0.30;;
16689;SDS011;8458;52.220;9.884;2023-07-20T12:23:05;0.40;;;0.30;;
16689;SDS011;8458;52.220;9.884;2023-07-20T12:25:38;0.50;;;0.30;;
16689;SDS011;8458;52.220;9.884;2023-07-20T12:28:06;0.33;;;0.33;;
16689;SDS011;8458;52.220;9.884;2023-07-20T12:30:34;0.50;;;0.40;;
16689;SDS011;8458;52.220;9.884;2023-07-20T12:33:03;0.67;;;0.40;;
16689;SDS011;8458;52.220;9.884;2023-07-20T12:35:30;0.30;;;0.30;;
16689;SDS011;8458;52.220;9.884;2023-07-20T12:37:56;0.77;;;0.30;;
16689;SDS011;8458;52.220;9.884;2023-07-20T12:40:23;0.30;;;0.30;;
16689;SDS011;8458;52.220;9.884;2023-07-20T12:42:50;0.23;;;0.23;;
16689;SDS011;8458;52.220;9.884;2023-07-20T12:45:16;0.30;;;0.30;;
16689;SDS011;8458;52.220;9.884;2023-07-20T12:47:43;0.50;;;0.30;;
16689;SDS011;8458;52.220;9.884;2023-07-20T12:50:11;0.90;;;0.40;;
16689;SDS011;8458;52.220;9.884;2023-07-20T12:52:37;0.30;;;0.30;;
16689;SDS011;8458;52.220;9.884;2023-07-20T12:55:05;0.40;;;0.23;;
16689;SDS011;8458;52.220;9.884;2023-07-20T12:57:33;0.37;;;0.30;;
16689;SDS011;8458;52.220;9.884;2023-07-20T13:00:00;0.20;;;0.20;;
16689;SDS011;8458;52.220;9.884;2023-07-20T13:02:26;0.20;;;0.20;;
16689;SDS011;8458;52.220;9.884;2023-07-20T13:04:53;0.23;;;0.23;;
16689;SDS011;8458;52.220;9.884;2023-07-20T13:07:28;0.53;;;0.30;;
16689;SDS011;8458;52.220;9.884;2023-07-20T13:09:55;1.47;;;0.33;;
16689;SDS011;8458;52.220;9.884;2023-07-20T13:12:22;0.40;;;0.40;;
16689;SDS011;8458;52.220;9.884;2023-07-20T13:14:48;0.53;;;0.30;;
16689;SDS011;8458;52.220;9.884;2023-07-20T13:17:15;0.67;;;0.37;;
16689;SDS011;8458;52.220;9.884;2023-07-20T13:19:41;0.47;;;0.20;;
16689;SDS011;8458;52.220;9.884;2023-07-20T13:22:07;0.40;;;0.40;;
16689;SDS011;8458;52.220;9.884;2023-07-20T13:24:35;0.63;;;0.20;;
16689;SDS011;8458;52.220;9.884;2023-07-20T13:27:02;0.40;;;0.30;;
16689;SDS011;8458;52.220;9.884;2023-07-20T13:29:30;0.50;;;0.40;;
16689;SDS011;8458;52.220;9.884;2023-07-20T13:31:57;0.20;;;0.20;;
16689;SDS011;8458;52.220;9.884;2023-07-20T13:34:23;0.60;;;0.27;;
16689;SDS011;8458;52.220;9.884;2023-07-20T13:36:50;0.13;;;0.13;;
16689;SDS011;8458;52.220;9.884;2023-07-20T13:39:17;0.20;;;0.20;;
16689;SDS011;8458;52.220;9.884;2023-07-20T13:41:45;0.40;;;0.30;;
16689;SDS011;8458;52.220;9.884;2023-07-20T13:44:11;0.23;;;0.23;;
16689;SDS011;8458;52.220;9.884;2023-07-20T13:46:38;2.43;;;0.50;;
16689;SDS011;8458;52.220;9.884;2023-07-20T13:49:04;0.43;;;0.30;;
16689;SDS011;8458;52.220;9.884;2023-07-20T13:51:31;0.23;;;0.23;;
16689;SDS011;8458;52.220;9.884;2023-07-20T13:53:57;0.40;;;0.30;;
16689;SDS011;8458;52.220;9.884;2023-07-20T13:56:24;0.73;;;0.30;;
16689;SDS011;8458;52.220;9.884;2023-07-20T13:58:52;0.43;;;0.30;;
16689;SDS011;8458;52.220;9.884;2023-07-20T14:01:18;0.20;;;0.20;;
16689;SDS011;8458;52.220;9.884;2023-07-20T14:03:45;0.40;;;0.30;;
16689;SDS011;8458;52.220;9.884;2023-07-20T14:06:11;0.40;;;0.20;;
16689;SDS011;8458;52.220;9.884;2023-07-20T14:08:38;0.47;;;0.20;;
16689;SDS011;8458;52.220;9.884;2023-07-20T14:11:06;0.20;;;0.20;;
16689;SDS011;8458;52.220;9.884;2023-07-20T14:13:32;0.20;;;0.20;;
16689;SDS011;8458;52.220;9.884;2023-07-20T14:16:00;0.40;;;0.30;;
16689;SDS011;8458;52.220;9.884;2023-07-20T14:18:26;0.30;;;0.30;;
16689;SDS011;8458;52.220;9.884;2023-07-20T14:20:53;0.33;;;0.20;;
16689;SDS011;8458;52.220;9.884;2023-07-20T14:23:19;0.20;;;0.20;;
16689;SDS011;8458;52.220;9.884;2023-07-20T14:25:46;1.27;;;0.30;;
16689;SDS011;8458;52.220;9.884;2023-07-20T14:28:12;0.40;;;0.30;;
16689;SDS011;8458;52.220;9.884;2023-07-20T14:30:39;0.30;;;0.30;;
16689;SDS011;8458;52.220;9.884;2023-07-20T14:33:07;0.80;;;0.30;;
16689;SDS011;8458;52.220;9.884;2023-07-20T14:35:34;0.30;;;0.30;;
16689;SDS011;8458;52.220;9.884;2023-07-20T14:38:00;0.23;;;0.20;;
16689;SDS011;8458;52.220;9.884;2023-07-20T14:40:27;0.40;;;0.30;;
16689;SDS011;8458;52.220;9.884;2023-07-20T14:42:54;0.37;;;0.20;;
16689;SDS011;8458;52.220;9.884;2023-07-20T14:45:21;0.43;;;0.27;;
16689;SDS011;8458;52.220;9.884;2023-07-20T14:47:48;0.50;;;0.20;;
16689;SDS011;8458;52.220;9.884;2023-07-20T14:50:20;0.63;;;0.30;;
16689;SDS011;8458;52.220;9.884;2023-07-20T14:52:46;0.30;;;0.27;;
16689;SDS011;8458;52.220;9.884;2023-07-20T14:55:13;1.03;;;0.30;;
16689;SDS011;8458;52.220;9.884;2023-07-20T14:57:39;0.80;;;0.17;;
16689;SDS011;8458;52.220;9.884;2023-07-20T15:00:06;0.27;;;0.20;;
16689;SDS011;8458;52.220;9.884;2023-07-20T15:02:35;0.53;;;0.30;;
16689;SDS011;8458;52.220;9.884;2023-07-20T15:05:02;0.77;;;0.30;;
16689;SDS011;8458;52.220;9.884;2023-07-20T15:07:30;0.40;;;0.20;;
16689;SDS011;8458;52.220;9.884;2023-07-20T15:09:56;0.40;;;0.30;;